Time;durP1;ratioP1;P1;durP2;ratioP2;P2;SDS_P1;SDS_P2;PMS_P1;PMS_P2;Temp;Humidity;BMP_temperature;BMP_pressure;BME280_temperature;BME280_humidity;BME280_pressure;Samples;Min_cycle;Max_cycle;Signal;HPM_P1;HPM_P2
2020/12/05 00:01:43;;;;;;;26.03;19.27;;;3.30;99.90;;;;;;5023750;28;20202;-75
2020/12/05 00:04:08;;;;;;;27.93;19.40;;;3.30;99.90;;;;;;5030588;28;20220;-74
2020/12/05 00:06:34;;;;;;;32.97;21.87;;;3.40;99.90;;;;;;5017248;28;20178;-75
2020/12/05 00:08:59;;;;;;;27.67;19.23;;;3.50;99.90;;;;;;5017329;28;20182;-74
2020/12/05 00:11:28;;;;;;;25.43;20.50;;;3.50;99.90;;;;;;5028467;28;20193;-75
2020/12/05 00:13:54;;;;;;;30.40;19.53;;;3.50;99.90;;;;;;5021139;28;20186;-74
2020/12/05 00:16:20;;;;;;;26.33;20.00;;;3.50;99.90;;;;;;5022885;28;20494;-74
2020/12/05 00:18:53;;;;;;;25.70;21.70;;;3.50;99.90;;;;;;5019165;28;20973;-74
2020/12/05 00:21:19;;;;;;;22.83;19.50;;;3.50;99.90;;;;;;5030434;28;20453;-74
2020/12/05 00:23:45;;;;;;;30.63;21.40;;;3.50;99.90;;;;;;5029809;28;20470;-74
2020/12/05 00:26:15;;;;;;;26.13;19.80;;;3.50;99.90;;;;;;5021387;28;20185;-74
2020/12/05 00:28:40;;;;;;;28.27;22.20;;;3.50;99.90;;;;;;5029762;28;20178;-74
2020/12/05 00:31:06;;;;;;;31.40;23.03;;;3.40;99.90;;;;;;5029406;28;20449;-74
2020/12/05 00:33:31;;;;;;;29.33;21.53;;;3.50;99.90;;;;;;5029132;28;20182;-74
2020/12/05 00:35:57;;;;;;;32.60;23.43;;;3.50;99.90;;;;;;5029610;28;20182;-74
2020/12/05 00:38:22;;;;;;;33.83;23.00;;;3.40;99.90;;;;;;5015013;28;20175;-74
2020/12/05 00:40:48;;;;;;;30.70;22.63;;;3.30;99.90;;;;;;5027519;28;20221;-74
2020/12/05 00:43:13;;;;;;;35.40;22.90;;;3.40;99.90;;;;;;5019157;28;20177;-74
2020/12/05 00:45:39;;;;;;;30.83;23.40;;;3.50;99.90;;;;;;5025711;28;20671;-74
2020/12/05 00:48:04;;;;;;;35.63;23.80;;;3.40;99.90;;;;;;5032999;28;20178;-74
2020/12/05 00:50:30;;;;;;;32.17;22.47;;;3.40;99.90;;;;;;5022583;28;20186;-74
2020/12/05 00:52:55;;;;;;;36.07;23.43;;;3.40;99.90;;;;;;5031652;28;20186;-75
2020/12/05 00:55:21;;;;;;;32.90;22.40;;;3.40;99.90;;;;;;5026610;28;20187;-74
2020/12/05 00:57:47;;;;;;;27.27;21.60;;;3.40;99.90;;;;;;5030821;28;20190;-75
2020/12/05 01:00:15;;;;;;;36.90;25.00;;;3.30;99.90;;;;;;5032996;28;20189;-74
2020/12/05 01:02:41;;;;;;;31.17;23.83;;;3.30;99.90;;;;;;5031878;28;20202;-74
2020/12/05 01:05:06;;;;;;;34.50;23.10;;;3.30;99.90;;;;;;5028265;28;20465;-74
2020/12/05 01:07:32;;;;;;;33.00;23.53;;;3.40;99.90;;;;;;5018262;28;20186;-74
2020/12/05 01:09:57;;;;;;;32.80;22.97;;;3.40;99.90;;;;;;5017142;28;20268;-74
2020/12/05 01:12:24;;;;;;;34.77;25.60;;;3.50;99.90;;;;;;5030859;28;20194;-74
2020/12/05 01:14:50;;;;;;;30.60;24.10;;;3.40;99.90;;;;;;5033353;28;20185;-74
2020/12/05 01:17:15;;;;;;;32.93;24.33;;;3.30;99.90;;;;;;5025033;28;20450;-74
2020/12/05 01:19:41;;;;;;;36.80;25.53;;;3.20;99.90;;;;;;5024733;28;20221;-74
2020/12/05 01:22:06;;;;;;;31.30;24.27;;;3.20;99.90;;;;;;5017932;28;20211;-74
2020/12/05 01:24:32;;;;;;;34.10;24.00;;;3.10;99.90;;;;;;5031816;28;20217;-74
2020/12/05 01:26:57;;;;;;;38.20;24.87;;;3.20;99.90;;;;;;5030277;28;20182;-74
2020/12/05 01:29:23;;;;;;;32.03;23.37;;;3.30;99.90;;;;;;5032343;28;20174;-74
2020/12/05 01:31:49;;;;;;;34.13;24.47;;;3.30;99.90;;;;;;5027036;28;20249;-74
2020/12/05 01:34:15;;;;;;;29.90;22.13;;;3.30;99.90;;;;;;5032314;28;20217;-74
2020/12/05 01:36:47;;;;;;;30.70;22.33;;;3.40;99.90;;;;;;5023741;28;20269;-74
2020/12/05 01:39:12;;;;;;;30.43;21.90;;;3.40;99.90;;;;;;5025067;28;20447;-73
2020/12/05 01:41:38;;;;;;;33.87;24.73;;;3.30;99.90;;;;;;5025421;28;21037;-74
2020/12/05 01:44:04;;;;;;;31.70;23.30;;;3.40;99.90;;;;;;5019089;28;20242;-73
2020/12/05 01:46:35;;;;;;;30.30;24.00;;;3.40;99.90;;;;;;5018078;28;20770;-74
2020/12/05 01:49:01;;;;;;;28.07;22.17;;;3.40;99.90;;;;;;5032047;28;20174;-74
2020/12/05 01:51:27;;;;;;;32.47;23.77;;;3.40;99.90;;;;;;5032117;28;20462;-74
2020/12/05 01:53:55;;;;;;;28.40;23.20;;;3.50;99.90;;;;;;5032806;28;20178;-74
2020/12/05 01:56:24;;;;;;;25.37;22.00;;;3.50;99.90;;;;;;5030827;28;20185;-74
2020/12/05 01:58:49;;;;;;;29.77;22.27;;;3.50;99.90;;;;;;5032548;28;20957;-75
2020/12/05 02:01:19;;;;;;;30.80;21.37;;;3.50;99.90;;;;;;5025904;28;20472;-74
2020/12/05 02:03:45;;;;;;;32.50;24.33;;;3.50;99.90;;;;;;5031210;28;20221;-75
2020/12/05 02:06:27;;;;;;;28.83;23.97;;;3.50;99.90;;;;;;5033108;28;20942;-75
2020/12/05 02:09:24;;;;;;;32.60;22.40;;;3.60;99.90;;;;;;5025897;28;20700;-74
2020/12/05 02:12:10;;;;;;;29.63;23.67;;;3.50;99.90;;;;;;5021405;28;21016;-74
2020/12/05 02:14:38;;;;;;;30.17;24.10;;;3.40;99.90;;;;;;5032882;28;20432;-75
2020/12/05 02:17:05;;;;;;;27.70;21.93;;;3.40;99.90;;;;;;5031607;28;20444;-75
2020/12/05 02:19:46;;;;;;;28.20;21.53;;;3.30;99.90;;;;;;5031844;28;20459;-75
2020/12/05 02:22:15;;;;;;;27.77;20.57;;;3.30;99.90;;;;;;5022689;28;21051;-74
2020/12/05 02:24:41;;;;;;;26.77;20.63;;;3.20;99.90;;;;;;5023562;28;20461;-75
2020/12/05 02:27:07;;;;;;;23.97;18.90;;;3.10;99.90;;;;;;5031075;28;20431;-75
2020/12/05 02:29:35;;;;;;;23.93;19.13;;;3.10;99.90;;;;;;5026184;28;20437;-75
2020/12/05 02:32:03;;;;;;;31.57;21.57;;;3.10;99.90;;;;;;5030049;28;20445;-74
2020/12/05 02:34:30;;;;;;;22.40;18.47;;;3.10;99.90;;;;;;5031328;28;20941;-74
2020/12/05 02:36:58;;;;;;;25.83;19.97;;;3.20;99.90;;;;;;5031997;28;20436;-73
2020/12/05 02:39:25;;;;;;;25.10;19.33;;;3.20;99.90;;;;;;5027520;28;20433;-74
2020/12/05 02:41:51;;;;;;;20.43;17.83;;;3.20;99.90;;;;;;5031805;28;20464;-74
2020/12/05 02:44:17;;;;;;;20.43;16.57;;;3.20;99.90;;;;;;5029500;28;20510;-75
2020/12/05 02:46:48;;;;;;;23.13;18.40;;;3.20;99.90;;;;;;5030814;28;20432;-74
2020/12/05 02:49:13;;;;;;;21.50;18.10;;;3.20;99.90;;;;;;5029528;28;20174;-74
2020/12/05 02:51:40;;;;;;;23.70;19.67;;;3.10;99.90;;;;;;5025105;28;21068;-75
2020/12/05 02:54:06;;;;;;;21.53;17.43;;;3.00;99.90;;;;;;5031411;28;20644;-74
2020/12/05 02:56:31;;;;;;;21.53;17.10;;;2.80;99.90;;;;;;5028730;28;20440;-72
2020/12/05 02:58:57;;;;;;;19.00;15.93;;;2.70;99.90;;;;;;5020084;28;20183;-72
2020/12/05 03:01:22;;;;;;;22.40;17.13;;;2.70;99.90;;;;;;5028941;28;20197;-72
2020/12/05 03:03:48;;;;;;;20.10;17.90;;;2.60;99.90;;;;;;5022864;28;20179;-72
2020/12/05 03:06:14;;;;;;;20.40;16.97;;;2.60;99.90;;;;;;5030143;28;20174;-72
2020/12/05 03:08:39;;;;;;;21.30;18.03;;;2.60;99.90;;;;;;5024954;28;20225;-72
2020/12/05 03:11:05;;;;;;;20.77;16.50;;;2.50;99.90;;;;;;5027344;28;20203;-73
2020/12/05 03:13:30;;;;;;;21.13;16.73;;;2.50;99.90;;;;;;5021443;28;20177;-73
2020/12/05 03:15:56;;;;;;;21.70;17.33;;;2.60;99.90;;;;;;5025452;28;20178;-72
2020/12/05 03:18:21;;;;;;;22.80;16.30;;;2.60;99.90;;;;;;5029579;28;20183;-72
2020/12/05 03:20:47;;;;;;;19.77;16.30;;;2.60;99.90;;;;;;5030823;28;20202;-73
2020/12/05 03:23:12;;;;;;;21.50;16.63;;;2.60;99.90;;;;;;5030940;28;20178;-72
2020/12/05 03:25:38;;;;;;;20.53;14.80;;;2.60;99.90;;;;;;5028983;28;20216;-73
2020/12/05 03:28:03;;;;;;;19.43;15.90;;;2.70;99.90;;;;;;5030335;28;20178;-73
2020/12/05 03:30:29;;;;;;;17.80;15.90;;;2.80;99.90;;;;;;5022721;28;20938;-72
2020/12/05 03:32:55;;;;;;;19.83;17.37;;;2.80;99.90;;;;;;5030744;28;20212;-72
2020/12/05 03:35:21;;;;;;;19.70;15.13;;;2.80;99.90;;;;;;5031208;28;20261;-72
2020/12/05 03:37:47;;;;;;;16.80;14.23;;;2.80;99.90;;;;;;5029558;28;20428;-72
2020/12/05 03:40:12;;;;;;;18.17;15.33;;;2.70;99.90;;;;;;5031037;28;20457;-73
2020/12/05 03:42:38;;;;;;;16.63;14.87;;;2.70;99.90;;;;;;5024161;28;20568;-72
2020/12/05 03:45:05;;;;;;;17.20;14.50;;;2.70;99.90;;;;;;5026106;28;20198;-72
2020/12/05 03:47:30;;;;;;;16.33;13.47;;;2.70;99.90;;;;;;5029858;28;20185;-73
2020/12/05 03:49:56;;;;;;;19.20;13.90;;;2.60;99.90;;;;;;5027340;28;20432;-73
2020/12/05 03:52:21;;;;;;;14.67;12.47;;;2.70;99.90;;;;;;5030734;28;20320;-73
2020/12/05 03:54:47;;;;;;;17.80;13.77;;;2.60;99.90;;;;;;5029556;28;20210;-73
2020/12/05 03:57:14;;;;;;;15.97;13.27;;;2.70;99.90;;;;;;5029427;28;20201;-72
2020/12/05 03:59:39;;;;;;;20.30;13.90;;;2.70;99.90;;;;;;5029350;28;20636;-73
2020/12/05 04:02:05;;;;;;;18.50;13.60;;;2.70;99.90;;;;;;5029668;28;20515;-72
2020/12/05 04:04:30;;;;;;;17.30;13.37;;;2.70;99.90;;;;;;5030194;28;20689;-73
2020/12/05 04:06:56;;;;;;;20.97;14.40;;;2.70;99.90;;;;;;5030518;28;20173;-73
2020/12/05 04:09:22;;;;;;;19.50;14.47;;;2.70;99.90;;;;;;5017009;28;20195;-72
2020/12/05 04:11:47;;;;;;;18.23;14.60;;;2.60;99.90;;;;;;5028289;28;20194;-73
2020/12/05 04:14:13;;;;;;;19.63;15.13;;;2.60;99.90;;;;;;5030176;28;20202;-72
2020/12/05 04:16:39;;;;;;;18.77;14.53;;;2.50;99.90;;;;;;5021891;28;20623;-72
2020/12/05 04:19:05;;;;;;;22.30;15.90;;;2.50;99.90;;;;;;5029426;28;20640;-72
2020/12/05 04:21:31;;;;;;;18.10;15.33;;;2.50;99.90;;;;;;5029749;28;21059;-73
2020/12/05 04:23:56;;;;;;;18.20;14.90;;;2.50;99.90;;;;;;5016969;28;20465;-72
2020/12/05 04:26:22;;;;;;;18.07;14.07;;;2.50;99.90;;;;;;5029297;28;20170;-72
2020/12/05 04:28:48;;;;;;;17.93;15.03;;;2.50;99.90;;;;;;5025859;28;20214;-72
2020/12/05 04:31:14;;;;;;;16.57;14.00;;;2.40;99.90;;;;;;5023317;28;20445;-72
2020/12/05 04:33:40;;;;;;;22.03;16.03;;;2.40;99.90;;;;;;5013800;28;20171;-73
2020/12/05 04:36:05;;;;;;;17.20;13.93;;;2.40;99.90;;;;;;5030148;28;20170;-72
2020/12/05 04:38:31;;;;;;;17.30;13.90;;;2.40;99.90;;;;;;5028356;28;20249;-72
2020/12/05 04:41:00;;;;;;;17.10;14.40;;;2.40;99.90;;;;;;5028050;28;20279;-72
2020/12/05 04:43:26;;;;;;;15.53;13.50;;;2.40;99.90;;;;;;5028778;28;20213;-72
2020/12/05 04:45:52;;;;;;;19.13;14.20;;;2.40;99.90;;;;;;5029498;28;20468;-73
2020/12/05 04:48:19;;;;;;;18.40;14.97;;;2.40;99.90;;;;;;5020653;28;20439;-72
2020/12/05 04:50:46;;;;;;;19.60;15.67;;;2.40;99.90;;;;;;5022179;28;20460;-72
2020/12/05 04:53:17;;;;;;;21.63;14.87;;;2.40;99.90;;;;;;5028888;28;20429;-72
2020/12/05 04:55:44;;;;;;;15.40;13.73;;;2.40;99.90;;;;;;5027059;28;20428;-72
2020/12/05 04:58:20;;;;;;;17.67;14.80;;;2.40;99.90;;;;;;5028581;28;20441;-72
2020/12/05 05:00:50;;;;;;;18.63;14.53;;;2.50;99.90;;;;;;5019915;28;20463;-72
2020/12/05 05:03:20;;;;;;;15.70;13.43;;;2.50;99.90;;;;;;5025933;28;20476;-72
2020/12/05 05:05:46;;;;;;;16.43;13.80;;;2.60;99.90;;;;;;5016316;28;20465;-73
2020/12/05 05:08:12;;;;;;;17.13;13.17;;;2.60;99.90;;;;;;5023441;28;20440;-73
2020/12/05 05:10:39;;;;;;;16.60;13.80;;;2.50;99.90;;;;;;5020151;28;20433;-72
2020/12/05 05:13:14;;;;;;;17.07;13.90;;;2.50;99.90;;;;;;5028966;28;20433;-73
2020/12/05 05:15:41;;;;;;;17.03;14.17;;;2.40;99.90;;;;;;5030014;28;20527;-73
2020/12/05 05:18:07;;;;;;;16.93;14.20;;;2.40;99.90;;;;;;5020630;28;20433;-73
2020/12/05 05:20:38;;;;;;;18.27;14.97;;;2.30;99.90;;;;;;5027941;28;20436;-74
2020/12/05 05:23:10;;;;;;;18.27;14.50;;;2.30;99.90;;;;;;5029828;28;20440;-74
2020/12/05 05:26:00;;;;;;;14.90;12.70;;;2.30;99.90;;;;;;5015922;28;20985;-74
2020/12/05 05:28:32;;;;;;;15.60;13.17;;;2.40;99.90;;;;;;5032377;28;20436;-74
2020/12/05 05:33:38;;;;;;;18.77;11.50;;;2.40;99.90;;;;;;5030889;28;20500;-74
2020/12/05 05:36:16;;;;;;;17.10;13.90;;;2.40;99.90;;;;;;5024439;28;20449;-74
2020/12/05 05:38:43;;;;;;;16.73;13.57;;;2.40;99.90;;;;;;5031885;28;20956;-74
2020/12/05 05:41:16;;;;;;;14.10;12.33;;;2.40;99.90;;;;;;5032004;28;20836;-74
2020/12/05 05:43:59;;;;;;;16.93;11.97;;;2.40;99.90;;;;;;5025406;28;20425;-74
2020/12/05 05:46:30;;;;;;;15.60;11.73;;;2.40;99.90;;;;;;5032614;28;20831;-75
2020/12/05 05:48:57;;;;;;;14.53;12.13;;;2.40;99.90;;;;;;5028321;28;20464;-74
2020/12/05 05:51:45;;;;;;;18.83;13.57;;;2.40;99.90;;;;;;5030686;28;20561;-74
2020/12/05 05:54:18;;;;;;;15.60;11.97;;;2.40;99.90;;;;;;5032229;28;20448;-74
2020/12/05 05:57:13;;;;;;;13.27;11.97;;;2.50;99.90;;;;;;5029526;28;20437;-74
2020/12/05 05:59:44;;;;;;;16.90;12.70;;;2.50;99.90;;;;;;5016721;28;20464;-74
2020/12/05 06:02:11;;;;;;;16.43;12.03;;;2.50;99.90;;;;;;5028336;28;20828;-74
2020/12/05 06:04:37;;;;;;;13.10;10.57;;;2.50;99.90;;;;;;5032661;28;20460;-74
2020/12/05 06:07:06;;;;;;;15.83;12.00;;;2.50;99.90;;;;;;5027215;28;20972;-74
2020/12/05 06:09:46;;;;;;;12.33;10.60;;;2.50;99.90;;;;;;5031513;28;20970;-75
2020/12/05 06:12:18;;;;;;;12.20;10.90;;;2.50;99.90;;;;;;5031111;28;21172;-74
2020/12/05 06:14:45;;;;;;;12.47;10.93;;;2.50;99.90;;;;;;5020692;28;20500;-74
2020/12/05 06:17:10;;;;;;;12.47;10.80;;;2.50;99.90;;;;;;5031882;28;20441;-74
2020/12/05 06:19:40;;;;;;;16.23;11.87;;;2.50;99.90;;;;;;5020787;28;20432;-74
2020/12/05 06:22:16;;;;;;;11.60;10.40;;;2.50;99.90;;;;;;5029838;28;20198;-74
2020/12/05 06:24:53;;;;;;;15.30;11.53;;;2.50;99.90;;;;;;5031436;28;20460;-75
2020/12/05 06:27:20;;;;;;;13.97;9.83;;;2.40;99.90;;;;;;5026584;28;20468;-74
2020/12/05 06:29:47;;;;;;;11.77;9.60;;;2.50;99.90;;;;;;5031119;28;20436;-74
2020/12/05 06:32:45;;;;;;;11.20;8.80;;;2.50;99.90;;;;;;5030815;28;20958;-74
2020/12/05 06:35:23;;;;;;;10.63;8.63;;;2.50;99.90;;;;;;5031718;28;20437;-74
2020/12/05 06:37:53;;;;;;;11.17;8.90;;;2.50;99.90;;;;;;5030286;28;20815;-74
2020/12/05 06:40:20;;;;;;;7.80;7.00;;;2.50;99.90;;;;;;5031839;28;20459;-75
2020/12/05 06:42:47;;;;;;;8.43;7.53;;;2.50;99.90;;;;;;5032303;28;20526;-74
2020/12/05 06:45:40;;;;;;;7.63;6.70;;;2.50;99.90;;;;;;5031217;28;20460;-74
2020/12/05 06:48:08;;;;;;;9.73;7.13;;;2.50;99.90;;;;;;5016627;28;20440;-74
2020/12/05 06:50:39;;;;;;;8.70;7.67;;;2.40;99.90;;;;;;5024981;28;20932;-74
2020/12/05 06:53:29;;;;;;;10.00;6.90;;;2.40;99.90;;;;;;5031374;28;20524;-74
2020/12/05 06:55:57;;;;;;;12.70;7.03;;;2.40;99.90;;;;;;5014801;28;20440;-74
2020/12/05 06:58:25;;;;;;;8.90;6.80;;;2.40;99.90;;;;;;5030294;28;20528;-74
2020/12/05 07:00:52;;;;;;;7.23;6.37;;;2.40;99.90;;;;;;5018308;28;20452;-74
2020/12/05 07:03:27;;;;;;;6.90;6.00;;;2.40;99.90;;;;;;5023776;28;20513;-74
2020/12/05 07:05:53;;;;;;;10.50;7.63;;;2.40;99.90;;;;;;5031005;28;20456;-75
2020/12/05 07:08:20;;;;;;;11.43;8.47;;;2.40;99.90;;;;;;5030896;28;20429;-74
2020/12/05 07:10:55;;;;;;;8.47;7.63;;;2.40;99.90;;;;;;5031601;28;20190;-74
2020/12/05 07:13:23;;;;;;;6.70;6.00;;;2.40;99.90;;;;;;5028501;28;20926;-75
2020/12/05 07:15:49;;;;;;;7.43;6.40;;;2.50;99.90;;;;;;5031204;28;20432;-74
2020/12/05 07:18:24;;;;;;;9.20;7.03;;;2.40;99.90;;;;;;5037707;28;20446;-74
2020/12/05 07:20:50;;;;;;;10.80;8.27;;;2.40;99.90;;;;;;5030740;28;20502;-74
2020/12/05 07:23:16;;;;;;;12.87;8.00;;;2.50;99.90;;;;;;5030713;28;20436;-75
2020/12/05 07:25:42;;;;;;;7.63;6.83;;;2.50;99.90;;;;;;5030782;28;20194;-74
2020/12/05 07:28:07;;;;;;;8.43;7.57;;;2.60;99.90;;;;;;5030415;28;20431;-74
2020/12/05 07:30:33;;;;;;;12.67;8.77;;;2.60;99.90;;;;;;5030838;28;20236;-74
2020/12/05 07:32:58;;;;;;;8.97;7.43;;;2.60;99.90;;;;;;5031165;28;20239;-74
2020/12/05 07:35:24;;;;;;;9.60;7.10;;;2.60;99.90;;;;;;5031082;28;20193;-75
2020/12/05 07:37:50;;;;;;;8.87;7.17;;;2.60;99.90;;;;;;5030581;28;20206;-74
2020/12/05 07:40:26;;;;;;;9.80;7.10;;;2.60;99.90;;;;;;5030793;28;20597;-74
2020/12/05 07:42:52;;;;;;;8.33;7.13;;;2.60;99.90;;;;;;5031258;28;20210;-75
2020/12/05 07:45:18;;;;;;;7.47;6.67;;;2.60;99.90;;;;;;5030686;28;20504;-74
2020/12/05 07:47:44;;;;;;;7.50;6.80;;;2.60;99.90;;;;;;5040413;28;20440;-74
2020/12/05 07:50:10;;;;;;;8.57;7.67;;;2.60;99.90;;;;;;5031465;28;20483;-75
2020/12/05 07:52:38;;;;;;;14.33;6.10;;;2.60;99.90;;;;;;5030920;28;20202;-74
2020/12/05 07:55:06;;;;;;;7.23;6.30;;;2.60;99.90;;;;;;5034124;28;20448;-75
2020/12/05 07:57:34;;;;;;;6.53;5.90;;;2.70;99.90;;;;;;5030321;28;20472;-74
2020/12/05 08:00:10;;;;;;;10.43;7.87;;;2.70;99.90;;;;;;5031615;28;20445;-74
2020/12/05 08:02:54;;;;;;;8.90;6.90;;;2.80;99.90;;;;;;5034278;28;20452;-74
2020/12/05 08:05:28;;;;;;;6.53;5.80;;;2.80;99.90;;;;;;5020400;28;20480;-75
2020/12/05 08:08:02;;;;;;;7.10;5.60;;;2.80;99.90;;;;;;5026928;28;20797;-75
2020/12/05 08:10:33;;;;;;;5.63;5.10;;;2.90;99.90;;;;;;5028714;28;20445;-74
2020/12/05 08:13:24;;;;;;;5.83;4.80;;;2.90;99.90;;;;;;5029732;28;20432;-74
2020/12/05 08:15:58;;;;;;;6.83;4.70;;;3.00;99.90;;;;;;5028858;28;20440;-74
2020/12/05 08:18:25;;;;;;;5.30;3.83;;;3.00;99.90;;;;;;5030470;28;20468;-74
2020/12/05 08:20:52;;;;;;;5.40;4.90;;;3.10;99.90;;;;;;5030740;28;20860;-74
2020/12/05 08:23:43;;;;;;;5.00;4.30;;;3.10;99.90;;;;;;5030560;28;20429;-74
2020/12/05 08:26:13;;;;;;;4.40;3.70;;;3.20;99.90;;;;;;5022184;28;20451;-74
2020/12/05 08:28:41;;;;;;;4.80;4.30;;;3.20;99.90;;;;;;5021197;28;20437;-74
2020/12/05 08:31:10;;;;;;;9.87;6.80;;;3.30;99.90;;;;;;5016964;28;21326;-73
2020/12/05 08:33:42;;;;;;;6.50;5.90;;;3.30;99.90;;;;;;5002773;28;20451;-72
2020/12/05 08:36:24;;;;;;;6.10;5.53;;;3.40;99.90;;;;;;5022656;28;20437;-72
2020/12/05 08:38:50;;;;;;;6.90;5.80;;;3.40;99.90;;;;;;5026546;28;20436;-72
2020/12/05 08:41:16;;;;;;;5.27;4.77;;;3.50;99.90;;;;;;5024289;28;20468;-72
2020/12/05 08:43:42;;;;;;;4.40;3.83;;;3.50;99.90;;;;;;5023093;28;20293;-72
2020/12/05 08:46:18;;;;;;;3.63;3.30;;;3.60;99.90;;;;;;5026686;28;20229;-72
2020/12/05 08:48:44;;;;;;;5.27;3.50;;;3.60;99.90;;;;;;5020688;28;20186;-71
2020/12/05 08:51:09;;;;;;;4.07;3.67;;;3.70;99.90;;;;;;5021390;28;20475;-70
2020/12/05 08:53:36;;;;;;;4.07;2.83;;;3.70;99.90;;;;;;5026855;28;20221;-69
2020/12/05 08:56:03;;;;;;;3.93;3.63;;;3.80;99.90;;;;;;5026994;28;20205;-69
2020/12/05 08:58:45;;;;;;;3.07;2.80;;;3.80;99.90;;;;;;5026216;28;20440;-70
2020/12/05 09:01:11;;;;;;;3.70;2.77;;;3.90;99.90;;;;;;5030865;28;20490;-71
2020/12/05 09:03:38;;;;;;;3.50;3.20;;;3.90;99.90;;;;;;5020925;28;20441;-71
2020/12/05 09:06:04;;;;;;;4.43;4.03;;;4.00;99.90;;;;;;5031200;28;20487;-71
2020/12/05 09:08:31;;;;;;;8.60;5.20;;;4.10;99.90;;;;;;5026239;28;20448;-72
2020/12/05 09:10:56;;;;;;;3.50;3.20;;;4.20;99.90;;;;;;5030764;28;20471;-72
2020/12/05 09:13:23;;;;;;;6.17;5.47;;;4.20;99.90;;;;;;5028472;28;20445;-72
2020/12/05 09:15:53;;;;;;;15.70;11.63;;;4.20;99.90;;;;;;5017287;28;20240;-72
2020/12/05 09:18:19;;;;;;;19.73;13.70;;;4.20;99.90;;;;;;5030103;28;20437;-73
2020/12/05 09:20:45;;;;;;;16.87;11.63;;;4.10;99.90;;;;;;5029527;28;20606;-72
2020/12/05 09:23:10;;;;;;;9.10;6.63;;;4.10;99.90;;;;;;5029974;28;20213;-72
2020/12/05 09:25:41;;;;;;;7.10;5.90;;;4.00;99.90;;;;;;5029814;28;20225;-71
2020/12/05 09:28:10;;;;;;;6.30;5.70;;;4.10;99.90;;;;;;5029146;28;20636;-72
2020/12/05 09:30:36;;;;;;;7.50;6.73;;;4.10;99.90;;;;;;5029174;28;20439;-69
2020/12/05 09:33:15;;;;;;;7.27;6.00;;;4.10;99.90;;;;;;5029815;28;20463;-72
2020/12/05 09:35:42;;;;;;;11.60;7.50;;;4.10;99.90;;;;;;5020971;28;20472;-71
2020/12/05 09:38:07;;;;;;;8.60;7.63;;;4.10;99.90;;;;;;5029462;28;20448;-72
2020/12/05 09:40:33;;;;;;;8.20;6.30;;;4.20;99.90;;;;;;5029304;28;20445;-71
2020/12/05 09:42:59;;;;;;;8.83;7.90;;;4.30;99.90;;;;;;5029411;28;20205;-71
2020/12/05 09:45:26;;;;;;;8.20;5.97;;;4.30;99.90;;;;;;5028846;28;20206;-72
2020/12/05 09:47:52;;;;;;;8.43;6.73;;;4.20;99.90;;;;;;5029678;28;20483;-71
2020/12/05 09:50:18;;;;;;;7.07;6.23;;;4.20;99.90;;;;;;5028047;28;20433;-72
2020/12/05 09:52:45;;;;;;;11.47;6.40;;;4.10;99.90;;;;;;5027453;28;20249;-71
2020/12/05 09:55:11;;;;;;;7.20;6.60;;;4.10;99.90;;;;;;5028518;28;20186;-72
2020/12/05 09:57:37;;;;;;;7.80;7.00;;;4.20;99.90;;;;;;5029002;28;20974;-71
2020/12/05 10:00:10;;;;;;;7.80;6.10;;;4.40;99.90;;;;;;5029776;28;20499;-72
2020/12/05 10:02:36;;;;;;;9.60;8.00;;;4.50;99.90;;;;;;5029669;28;20452;-72
2020/12/05 10:05:04;;;;;;;8.87;7.97;;;4.50;99.90;;;;;;5029886;28;20497;-71
2020/12/05 10:07:29;;;;;;;9.83;8.30;;;4.50;99.90;;;;;;5029313;28;20439;-71
2020/12/05 10:09:55;;;;;;;10.23;9.00;;;4.50;99.90;;;;;;5029256;28;20432;-71
2020/12/05 10:12:20;;;;;;;10.40;9.50;;;4.30;99.90;;;;;;5029118;28;20186;-70
2020/12/05 10:14:46;;;;;;;10.10;9.10;;;4.30;99.90;;;;;;5029542;28;20716;-70
2020/12/05 10:17:11;;;;;;;8.93;8.07;;;4.30;99.90;;;;;;5029544;28;20270;-70
2020/12/05 10:19:38;;;;;;;9.67;8.80;;;4.20;99.90;;;;;;5028474;28;20190;-70
2020/12/05 10:22:03;;;;;;;10.90;9.90;;;4.20;99.90;;;;;;5029377;28;20639;-70
2020/12/05 10:24:29;;;;;;;11.03;9.40;;;4.10;99.90;;;;;;5028847;28;20472;-71
2020/12/05 10:26:54;;;;;;;10.63;9.53;;;4.10;99.90;;;;;;5029081;28;20186;-70
2020/12/05 10:29:24;;;;;;;11.30;9.83;;;4.10;99.90;;;;;;5028816;28;20589;-71
2020/12/05 10:31:52;;;;;;;10.70;9.70;;;4.20;99.90;;;;;;5012753;28;20194;-71
2020/12/05 10:34:18;;;;;;;10.40;9.27;;;4.30;99.90;;;;;;5029340;28;20439;-70
2020/12/05 10:36:44;;;;;;;12.27;10.60;;;4.20;99.90;;;;;;5028559;28;20437;-69
2020/12/05 10:39:10;;;;;;;11.83;10.73;;;4.10;99.90;;;;;;5028834;28;20495;-68
2020/12/05 10:41:36;;;;;;;11.57;10.43;;;4.00;99.90;;;;;;5028410;28;20464;-67
2020/12/05 10:44:06;;;;;;;11.83;10.63;;;3.90;99.90;;;;;;5028981;28;20439;-68
2020/12/05 10:46:32;;;;;;;16.40;12.73;;;3.80;99.90;;;;;;5028886;28;20446;-68
2020/12/05 10:48:58;;;;;;;19.13;12.83;;;3.80;99.90;;;;;;5028338;28;20445;-68
2020/12/05 10:51:24;;;;;;;16.13;12.60;;;3.70;99.90;;;;;;5029082;28;20212;-67
2020/12/05 10:53:49;;;;;;;15.23;13.30;;;3.60;99.90;;;;;;5028635;28;20805;-68
2020/12/05 10:56:15;;;;;;;16.30;14.20;;;3.60;99.90;;;;;;5028659;28;20655;-69
2020/12/05 10:58:40;;;;;;;18.50;13.67;;;3.60;99.90;;;;;;5028005;28;20194;-67
2020/12/05 11:01:06;;;;;;;14.50;13.10;;;3.60;99.90;;;;;;5028711;28;20293;-68
2020/12/05 11:03:32;;;;;;;16.17;13.97;;;3.60;99.90;;;;;;5028063;28;20209;-68
2020/12/05 11:05:57;;;;;;;15.63;13.70;;;3.60;99.90;;;;;;5028227;28;20214;-68
2020/12/05 11:08:23;;;;;;;15.70;14.10;;;3.70;99.90;;;;;;5027971;28;20213;-68
2020/12/05 11:10:48;;;;;;;14.70;13.10;;;3.80;99.90;;;;;;5027973;28;20210;-67
2020/12/05 11:13:14;;;;;;;13.80;12.40;;;3.80;99.90;;;;;;5028275;28;20178;-68
2020/12/05 11:15:39;;;;;;;15.10;13.60;;;3.90;99.90;;;;;;5028225;28;20185;-69
2020/12/05 11:18:06;;;;;;;14.60;13.13;;;3.80;99.90;;;;;;5010967;23;20227;-67
2020/12/05 11:20:31;;;;;;;14.83;13.40;;;3.80;99.90;;;;;;4969079;28;20223;-67
2020/12/05 11:22:57;;;;;;;15.27;13.77;;;3.90;99.90;;;;;;4950380;28;20479;-67
2020/12/05 11:25:22;;;;;;;13.80;12.40;;;4.00;99.90;;;;;;4955211;28;20212;-68
2020/12/05 11:27:48;;;;;;;14.90;13.40;;;4.20;99.90;;;;;;4963171;28;20244;-67
2020/12/05 11:30:13;;;;;;;19.53;12.20;;;4.20;99.90;;;;;;4962173;28;20251;-67
2020/12/05 11:32:40;;;;;;;13.10;11.80;;;4.30;99.90;;;;;;4953159;28;20177;-67
2020/12/05 11:35:06;;;;;;;11.93;10.80;;;4.40;99.90;;;;;;4966126;28;20193;-67
2020/12/05 11:37:32;;;;;;;14.73;12.17;;;4.50;99.90;;;;;;4955651;28;20930;-67
2020/12/05 11:39:58;;;;;;;16.57;14.07;;;4.60;99.90;;;;;;4959139;28;20451;-67
2020/12/05 11:42:27;;;;;;;15.07;13.53;;;4.50;99.90;;;;;;4950345;28;20440;-67
2020/12/05 11:44:53;;;;;;;15.47;13.73;;;4.70;99.90;;;;;;4965929;28;20627;-67
2020/12/05 11:47:19;;;;;;;21.70;14.87;;;4.70;99.90;;;;;;4964774;28;20494;-67
2020/12/05 11:49:44;;;;;;;14.40;12.97;;;4.70;99.90;;;;;;4948684;28;20177;-67
2020/12/05 11:52:10;;;;;;;15.13;12.63;;;4.80;99.90;;;;;;4960238;28;20668;-67
2020/12/05 11:54:35;;;;;;;13.17;11.67;;;4.80;99.90;;;;;;4968490;28;20196;-67
2020/12/05 11:57:01;;;;;;;13.43;11.77;;;4.80;99.90;;;;;;4954221;28;20279;-67
2020/12/05 11:59:26;;;;;;;14.50;11.53;;;4.80;99.90;;;;;;4966010;28;20737;-67
2020/12/05 12:01:52;;;;;;;16.20;14.50;;;4.80;99.90;;;;;;4959730;28;20189;-67
2020/12/05 12:04:17;;;;;;;13.93;12.43;;;4.80;99.90;;;;;;4949590;28;20212;-67
2020/12/05 12:06:43;;;;;;;14.50;12.83;;;4.70;99.90;;;;;;4964644;28;20212;-67
2020/12/05 12:09:09;;;;;;;12.80;11.10;;;4.80;99.90;;;;;;4951864;28;20172;-67
2020/12/05 12:11:34;;;;;;;13.40;12.20;;;4.70;99.90;;;;;;4968211;28;20232;-67
2020/12/05 12:14:00;;;;;;;12.40;11.20;;;4.70;99.90;;;;;;4959160;28;20474;-67
2020/12/05 12:16:26;;;;;;;12.50;11.30;;;4.70;99.90;;;;;;4949180;28;20713;-67
2020/12/05 12:18:53;;;;;;;12.27;11.17;;;4.70;99.90;;;;;;4963610;28;20660;-67
2020/12/05 12:21:26;;;;;;;12.07;10.97;;;4.60;99.90;;;;;;4965108;28;20183;-67
2020/12/05 12:23:52;;;;;;;15.60;12.10;;;4.40;99.90;;;;;;4958532;28;20446;-67
2020/12/05 12:26:17;;;;;;;12.53;11.23;;;4.40;99.90;;;;;;4956193;28;20445;-67
2020/12/05 12:28:43;;;;;;;13.53;10.83;;;4.40;99.90;;;;;;4964315;28;20223;-67
2020/12/05 12:31:09;;;;;;;11.67;10.30;;;4.40;99.90;;;;;;4967456;28;20187;-67
2020/12/05 12:33:35;;;;;;;11.73;10.53;;;4.30;99.90;;;;;;4962323;28;20448;-67
2020/12/05 12:36:01;;;;;;;13.57;11.33;;;4.30;99.90;;;;;;4953970;28;20177;-67
2020/12/05 12:38:27;;;;;;;12.67;11.37;;;4.30;99.90;;;;;;4967256;28;20462;-67
2020/12/05 12:40:53;;;;;;;15.27;11.77;;;4.30;99.90;;;;;;4956035;28;20184;-67
2020/12/05 12:43:18;;;;;;;12.27;11.07;;;4.40;99.90;;;;;;4972255;28;20176;-67
2020/12/05 12:45:45;;;;;;;15.73;11.20;;;4.50;99.90;;;;;;4963713;28;20204;-67
2020/12/05 12:50:37;;;;;;;14.13;12.63;;;4.60;99.90;;;;;;4955994;28;20436;-67
2020/12/05 12:53:03;;;;;;;14.63;13.13;;;4.60;99.90;;;;;;4956149;28;20185;-67